createdAt,value
2019-05-07T00:01:54.795Z,100.00
2019-05-07T00:06:55.112Z,100.00
2019-05-07T00:11:57.050Z,100.00
2019-05-07T00:17:04.570Z,100.00
2019-05-07T00:22:09.791Z,100.00
2019-05-07T00:27:13.123Z,100.00
2019-05-07T00:32:15.056Z,100.00
2019-05-07T00:37:36.518Z,100.00
2019-05-07T00:42:56.980Z,100.00
2019-05-07T00:47:58.892Z,100.00
2019-05-07T00:53:02.119Z,100.00
2019-05-07T00:58:04.117Z,100.00
2019-05-07T01:03:05.943Z,100.00
2019-05-07T01:08:07.872Z,100.00
2019-05-07T01:13:12.024Z,100.00
2019-05-07T01:18:13.600Z,100.00
2019-05-07T01:23:15.533Z,100.00
2019-05-07T01:28:17.466Z,100.00
2019-05-07T01:33:27.332Z,100.00
2019-05-07T01:38:29.252Z,100.00
2019-05-07T01:43:32.130Z,100.00
2019-05-07T01:48:34.269Z,100.00
2019-05-07T01:53:36.153Z,100.00
2019-05-07T01:58:38.073Z,100.00
2019-05-07T02:04:12.762Z,100.00
2019-05-07T02:09:27.276Z,100.00
2019-05-07T02:14:29.335Z,100.00
2019-05-07T02:19:32.910Z,100.00
2019-05-07T02:24:35.163Z,100.00
2019-05-07T02:29:38.232Z,100.00
2019-05-07T02:34:44.257Z,100.00
2019-05-07T02:39:53.252Z,100.00
2019-05-07T02:45:17.526Z,100.00
2019-05-07T02:50:34.029Z,100.00
2019-05-07T02:55:43.544Z,100.00
2019-05-07T03:00:48.305Z,100.00
2019-05-07T03:05:53.768Z,100.00
2019-05-07T03:10:58.035Z,100.00
2019-05-07T03:16:03.524Z,100.00
2019-05-07T03:21:24.083Z,100.00
2019-05-07T03:26:29.070Z,100.00
2019-05-07T03:31:49.345Z,100.00
2019-05-07T03:36:56.439Z,100.00
2019-05-07T03:41:56.678Z,100.00
2019-05-07T03:47:15.106Z,100.00
2019-05-07T03:52:17.246Z,100.00
2019-05-07T03:57:19.193Z,100.00
2019-05-07T04:02:23.930Z,100.00
2019-05-07T04:07:24.936Z,100.00
2019-05-07T04:12:29.897Z,100.00
2019-05-07T04:17:33.914Z,100.00
2019-05-07T04:22:36.060Z,100.00
2019-05-07T04:27:47.192Z,100.00
2019-05-07T04:32:54.141Z,100.00
2019-05-07T04:38:01.578Z,100.00
2019-05-07T04:43:02.718Z,100.00
2019-05-07T04:48:06.578Z,100.00
2019-05-07T04:53:08.626Z,100.00
2019-05-07T04:58:13.743Z,100.00
2019-05-07T05:03:19.943Z,100.00
2019-05-07T05:08:25.679Z,100.00
2019-05-07T05:13:27.788Z,100.00
2019-05-07T05:18:29.682Z,100.00
2019-05-07T05:24:08.839Z,100.00
2019-05-07T05:29:19.463Z,100.00
2019-05-07T05:34:22.877Z,100.00
2019-05-07T05:39:24.777Z,100.00
2019-05-07T05:44:32.046Z,100.00
2019-05-07T05:49:34.242Z,100.00
2019-05-07T05:54:56.552Z,100.00
2019-05-07T06:00:16.508Z,100.00
2019-05-07T06:05:38.302Z,100.00
2019-05-07T06:10:51.880Z,100.00
2019-05-07T06:16:03.151Z,100.00
2019-05-07T06:21:16.163Z,100.00
2019-05-07T06:26:18.197Z,100.00
2019-05-07T06:31:23.069Z,100.00
2019-05-07T06:36:33.568Z,100.00
2019-05-07T06:42:03.969Z,100.00
2019-05-07T06:47:05.941Z,100.00
2019-05-07T06:52:08.063Z,100.00
2019-05-07T06:57:09.996Z,100.00
2019-05-07T07:02:32.851Z,100.00
2019-05-07T07:07:52.558Z,100.00
2019-05-07T07:12:54.530Z,100.00
2019-05-07T07:17:56.451Z,100.00
2019-05-07T07:22:58.406Z,100.00
2019-05-07T07:28:02.837Z,100.00
2019-05-07T07:33:07.870Z,100.00
2019-05-07T07:38:27.906Z,100.00
2019-05-07T07:43:29.953Z,100.00
2019-05-07T07:48:32.245Z,100.00
2019-05-07T07:53:35.567Z,100.00
2019-05-07T07:59:12.723Z,100.00
2019-05-07T08:04:19.133Z,100.00
2019-05-07T08:09:24.008Z,100.00
2019-05-07T08:14:25.660Z,100.00
2019-05-07T08:19:27.607Z,100.00
2019-05-07T08:24:34.848Z,100.00
2019-05-07T08:29:37.063Z,100.00
2019-05-07T08:34:43.830Z,100.00
2019-05-07T08:39:45.755Z,100.00
2019-05-07T08:45:02.898Z,100.00
2019-05-07T08:50:05.127Z,100.00
2019-05-07T08:55:07.089Z,100.00
2019-05-07T09:00:09.600Z,100.00
2019-05-07T09:05:13.055Z,100.00
2019-05-07T09:10:14.938Z,100.00
2019-05-07T09:15:16.846Z,100.00
2019-05-07T09:20:18.745Z,94.35
2019-05-07T09:25:22.313Z,98.18
2019-05-07T09:30:44.195Z,94.53
2019-05-07T09:35:52.862Z,100.00
2019-05-07T09:40:56.983Z,100.00
2019-05-07T09:46:02.672Z,100.00
2019-05-07T09:51:06.640Z,94.37
2019-05-07T09:56:08.687Z,99.16
2019-05-07T10:01:12.545Z,100.00
2019-05-07T10:06:18.791Z,93.49
2019-05-07T10:11:39.467Z,85.28
2019-05-07T10:17:06.617Z,75.29
2019-05-07T10:22:12.593Z,85.25
2019-05-07T10:27:15.608Z,85.20
2019-05-07T10:32:17.510Z,99.59
2019-05-07T10:37:19.804Z,93.78
2019-05-07T10:42:22.728Z,92.86
2019-05-07T10:47:38.142Z,93.41
2019-05-07T10:52:42.479Z,80.24
2019-05-07T10:57:44.657Z,81.51
2019-05-07T11:02:46.905Z,84.66
2019-05-07T11:07:48.936Z,75.25
2019-05-07T11:12:51.714Z,66.26
2019-05-07T11:18:06.354Z,63.92
2019-05-07T11:23:08.696Z,76.24
2019-05-07T11:28:12.462Z,78.75
2019-05-07T11:33:16.300Z,91.54
2019-05-07T11:38:21.553Z,84.33
2019-05-07T11:43:44.574Z,93.72
2019-05-07T11:48:54.696Z,100.00
2019-05-07T11:54:09.721Z,100.00
2019-05-07T11:59:13.476Z,100.00
2019-05-07T12:04:18.408Z,100.00
2019-05-07T12:09:22.456Z,92.29
2019-05-07T12:14:30.923Z,79.46
2019-05-07T12:19:32.924Z,72.53
2019-05-07T12:24:34.743Z,63.87
2019-05-07T12:29:36.640Z,74.53
2019-05-07T12:34:45.942Z,70.80
2019-05-07T12:39:47.856Z,71.52
2019-05-07T12:44:51.750Z,62.24
2019-05-07T12:49:53.783Z,65.07
2019-05-07T12:55:03.332Z,100.00
2019-05-07T13:00:24.408Z,95.75
2019-05-07T13:05:26.713Z,92.61
2019-05-07T13:10:32.652Z,97.55
2019-05-07T13:15:34.588Z,93.18
2019-05-07T13:20:36.489Z,84.17
2019-05-07T13:25:38.450Z,70.97
2019-05-07T13:30:43.904Z,67.98
2019-05-07T13:35:46.206Z,83.73
2019-05-07T13:41:02.189Z,73.14
2019-05-07T13:46:12.214Z,71.96
2019-05-07T13:51:16.510Z,74.16
2019-05-07T13:56:22.473Z,78.11
2019-05-07T14:01:50.257Z,76.22
2019-05-07T14:06:52.992Z,69.29
2019-05-07T14:11:57.570Z,73.23
2019-05-07T14:16:59.491Z,67.84
2019-05-07T14:22:13.912Z,74.90
2019-05-07T14:27:05.240Z,77.56
2019-05-07T14:32:32.699Z,78.90
2019-05-07T14:37:41.829Z,86.97
2019-05-07T14:42:49.264Z,91.61
2019-05-07T14:47:52.210Z,87.87
2019-05-07T14:52:55.199Z,93.30
2019-05-07T14:57:59.282Z,77.18
2019-05-07T15:03:01.927Z,69.63
2019-05-07T15:08:10.604Z,75.70
2019-05-07T15:13:12.576Z,74.28
2019-05-07T15:18:22.764Z,72.08
2019-05-07T15:23:31.444Z,79.73
2019-05-07T15:28:34.697Z,82.63
2019-05-07T15:33:36.691Z,76.67
2019-05-07T15:38:42.878Z,72.57
2019-05-07T15:43:46.948Z,69.01
2019-05-07T15:48:48.954Z,65.13
2019-05-07T15:53:55.107Z,70.21
2019-05-07T15:58:59.067Z,74.79
2019-05-07T16:04:02.770Z,72.43
2019-05-07T16:09:08.039Z,71.31
2019-05-07T16:14:32.069Z,80.66
2019-05-07T16:19:34.146Z,64.65
2019-05-07T16:24:36.155Z,72.19
2019-05-07T16:29:42.036Z,67.45
2019-05-07T16:34:44.135Z,68.34
2019-05-07T16:39:45.935Z,72.39
2019-05-07T16:44:48.074Z,78.45
2019-05-07T16:49:52.574Z,93.19
2019-05-07T16:54:54.773Z,79.87
2019-05-07T16:59:58.481Z,72.22
2019-05-07T17:05:12.576Z,77.46
2019-05-07T17:10:14.666Z,83.59
2019-05-07T17:15:17.136Z,75.10
2019-05-07T17:20:19.075Z,70.30
2019-05-07T17:25:36.398Z,76.86
2019-05-07T17:30:38.320Z,74.75
2019-05-07T17:35:42.323Z,72.38
2019-05-07T17:40:44.392Z,78.49
2019-05-07T17:45:48.369Z,79.31
2019-05-07T17:51:17.201Z,80.02
2019-05-07T17:56:19.513Z,91.27
2019-05-07T18:01:28.451Z,100.00
2019-05-07T18:06:32.148Z,86.97
2019-05-07T18:11:34.350Z,100.00
2019-05-07T18:17:02.163Z,100.00
2019-05-07T18:22:07.068Z,97.07
2019-05-07T18:27:12.668Z,100.00
2019-05-07T18:32:14.413Z,100.00
2019-05-07T18:37:19.292Z,100.00
2019-05-07T18:42:23.407Z,100.00
2019-05-07T18:47:26.921Z,100.00
2019-05-07T18:52:29.142Z,100.00
2019-05-07T18:57:32.800Z,100.00
2019-05-07T19:02:35.208Z,100.00
2019-05-07T19:07:41.694Z,100.00
2019-05-07T19:12:44.561Z,100.00
2019-05-07T19:17:48.108Z,100.00
2019-05-07T19:22:51.850Z,100.00
2019-05-07T19:27:56.390Z,100.00
2019-05-07T19:32:58.467Z,100.00
2019-05-07T19:38:02.924Z,100.00
2019-05-07T19:43:04.980Z,100.00
2019-05-07T19:48:09.038Z,100.00
2019-05-07T19:53:12.488Z,100.00
2019-05-07T19:58:15.941Z,100.00
2019-05-07T20:03:19.346Z,100.00
2019-05-07T20:08:21.281Z,100.00
2019-05-07T20:13:23.547Z,100.00
2019-05-07T20:18:25.496Z,100.00
2019-05-07T20:23:27.573Z,100.00
2019-05-07T20:28:32.613Z,100.00
2019-05-07T20:33:36.349Z,100.00
2019-05-07T20:38:38.308Z,100.00
2019-05-07T20:43:42.679Z,100.00
2019-05-07T20:48:44.159Z,100.00
2019-05-07T20:54:17.712Z,100.00
2019-05-07T20:59:24.312Z,100.00
2019-05-07T21:04:32.818Z,100.00
2019-05-07T21:09:35.372Z,100.00
2019-05-07T21:14:37.409Z,100.00
2019-05-07T21:19:42.451Z,100.00
2019-05-07T21:24:47.036Z,100.00
2019-05-07T21:29:52.739Z,100.00
2019-05-07T21:34:56.747Z,100.00
2019-05-07T21:39:58.672Z,100.00
2019-05-07T21:45:03.002Z,100.00
2019-05-07T21:50:09.763Z,100.00
2019-05-07T21:55:38.161Z,100.00
2019-05-07T22:00:54.710Z,100.00
2019-05-07T22:05:56.802Z,100.00
2019-05-07T22:10:59.038Z,100.00
2019-05-07T22:16:02.568Z,100.00
2019-05-07T22:21:04.841Z,100.00
2019-05-07T22:26:20.156Z,100.00
2019-05-07T22:31:35.062Z,100.00
2019-05-07T22:36:37.252Z,100.00
2019-05-07T22:41:39.268Z,100.00
2019-05-07T22:46:42.719Z,100.00
2019-05-07T22:51:44.733Z,100.00
2019-05-07T22:57:16.798Z,100.00
2019-05-07T23:02:18.627Z,100.00
2019-05-07T23:07:22.766Z,100.00
2019-05-07T23:12:24.703Z,100.00
2019-05-07T23:17:26.566Z,100.00
2019-05-07T23:22:29.628Z,100.00
2019-05-07T23:27:33.433Z,100.00
2019-05-07T23:32:35.557Z,100.00
2019-05-07T23:37:37.496Z,100.00
2019-05-07T23:42:42.403Z,100.00
2019-05-07T23:47:46.087Z,100.00
2019-05-07T23:52:48.125Z,100.00
2019-05-07T23:57:52.385Z,100.00
